sensor_id;sensor_type;location;lat;lon;timestamp;temperature;humidity
4187;DHT22;2107;52.306;10.484;2023-12-20T00:00:29;6.70;99.90
4187;DHT22;2107;52.306;10.484;2023-12-20T00:02:56;6.70;99.90
4187;DHT22;2107;52.306;10.484;2023-12-20T00:05:23;6.70;99.90
4187;DHT22;2107;52.306;10.484;2023-12-20T00:07:50;6.70;99.90
4187;DHT22;2107;52.306;10.484;2023-12-20T00:10:17;6.70;99.90
4187;DHT22;2107;52.306;10.484;2023-12-20T00:12:44;6.70;99.90
4187;DHT22;2107;52.306;10.484;2023-12-20T00:15:12;6.70;99.90
4187;DHT22;2107;52.306;10.484;2023-12-20T00:17:39;6.70;99.90
4187;DHT22;2107;52.306;10.484;2023-12-20T00:20:07;6.80;99.90
4187;DHT22;2107;52.306;10.484;2023-12-20T00:22:34;6.80;99.90
4187;DHT22;2107;52.306;10.484;2023-12-20T00:25:01;6.80;99.90
4187;DHT22;2107;52.306;10.484;2023-12-20T00:27:28;6.80;99.90
4187;DHT22;2107;52.306;10.484;2023-12-20T00:29:55;6.80;99.90
4187;DHT22;2107;52.306;10.484;2023-12-20T00:32:23;6.80;99.90
4187;DHT22;2107;52.306;10.484;2023-12-20T00:34:50;6.80;99.90
4187;DHT22;2107;52.306;10.484;2023-12-20T00:37:17;6.70;99.90
4187;DHT22;2107;52.306;10.484;2023-12-20T00:39:44;6.70;99.90
4187;DHT22;2107;52.306;10.484;2023-12-20T00:42:10;6.70;99.90
4187;DHT22;2107;52.306;10.484;2023-12-20T00:44:37;6.70;99.90
4187;DHT22;2107;52.306;10.484;2023-12-20T00:47:04;6.60;99.90
4187;DHT22;2107;52.306;10.484;2023-12-20T00:49:32;6.60;99.90
4187;DHT22;2107;52.306;10.484;2023-12-20T00:51:59;6.50;99.90
4187;DHT22;2107;52.306;10.484;2023-12-20T00:54:26;6.40;99.90
4187;DHT22;2107;52.306;10.484;2023-12-20T00:56:54;6.40;99.90
4187;DHT22;2107;52.306;10.484;2023-12-20T00:59:20;6.40;99.90
4187;DHT22;2107;52.306;10.484;2023-12-20T01:01:47;6.30;99.90
4187;DHT22;2107;52.306;10.484;2023-12-20T01:04:14;6.30;99.90
4187;DHT22;2107;52.306;10.484;2023-12-20T01:06:42;6.30;99.90
4187;DHT22;2107;52.306;10.484;2023-12-20T01:09:09;6.20;99.90
4187;DHT22;2107;52.306;10.484;2023-12-20T01:11:36;6.20;99.90
4187;DHT22;2107;52.306;10.484;2023-12-20T01:14:03;6.20;99.90
4187;DHT22;2107;52.306;10.484;2023-12-20T01:16:30;6.30;99.90
4187;DHT22;2107;52.306;10.484;2023-12-20T01:18:57;6.30;99.90
4187;DHT22;2107;52.306;10.484;2023-12-20T01:21:24;6.20;99.90
4187;DHT22;2107;52.306;10.484;2023-12-20T01:23:52;6.20;99.90
4187;DHT22;2107;52.306;10.484;2023-12-20T01:26:19;6.20;99.90
4187;DHT22;2107;52.306;10.484;2023-12-20T01:28:46;6.20;99.90
4187;DHT22;2107;52.306;10.484;2023-12-20T01:31:13;6.20;99.90
4187;DHT22;2107;52.306;10.484;2023-12-20T01:33:40;6.10;99.90
4187;DHT22;2107;52.306;10.484;2023-12-20T01:36:06;6.00;99.90
4187;DHT22;2107;52.306;10.484;2023-12-20T01:38:33;6.00;99.90
4187;DHT22;2107;52.306;10.484;2023-12-20T01:41:02;5.90;99.90
4187;DHT22;2107;52.306;10.484;2023-12-20T01:43:29;5.80;99.90
4187;DHT22;2107;52.306;10.484;2023-12-20T01:45:57;5.70;99.90
4187;DHT22;2107;52.306;10.484;2023-12-20T01:48:25;5.80;99.90
4187;DHT22;2107;52.306;10.484;2023-12-20T01:50:52;5.60;99.90
4187;DHT22;2107;52.306;10.484;2023-12-20T01:53:20;5.60;99.90
4187;DHT22;2107;52.306;10.484;2023-12-20T01:55:48;5.60;99.90
4187;DHT22;2107;52.306;10.484;2023-12-20T01:58:17;5.60;99.90
4187;DHT22;2107;52.306;10.484;2023-12-20T02:00:45;5.50;99.90
4187;DHT22;2107;52.306;10.484;2023-12-20T02:03:12;5.50;99.90
4187;DHT22;2107;52.306;10.484;2023-12-20T02:05:40;5.40;99.90
4187;DHT22;2107;52.306;10.484;2023-12-20T02:08:07;5.40;99.90
4187;DHT22;2107;52.306;10.484;2023-12-20T02:10:34;5.40;99.90
4187;DHT22;2107;52.306;10.484;2023-12-20T02:13:01;5.40;99.90
4187;DHT22;2107;52.306;10.484;2023-12-20T02:15:29;5.30;99.90
4187;DHT22;2107;52.306;10.484;2023-12-20T02:17:56;5.30;99.90
4187;DHT22;2107;52.306;10.484;2023-12-20T02:20:23;5.30;99.90
4187;DHT22;2107;52.306;10.484;2023-12-20T02:22:51;5.30;99.90
4187;DHT22;2107;52.306;10.484;2023-12-20T02:25:18;5.30;99.90
4187;DHT22;2107;52.306;10.484;2023-12-20T02:27:45;5.30;99.90
4187;DHT22;2107;52.306;10.484;2023-12-20T02:30:12;5.20;99.90
4187;DHT22;2107;52.306;10.484;2023-12-20T02:32:39;5.20;99.90
4187;DHT22;2107;52.306;10.484;2023-12-20T02:35:06;5.10;99.90
4187;DHT22;2107;52.306;10.484;2023-12-20T02:37:33;5.10;99.90
4187;DHT22;2107;52.306;10.484;2023-12-20T02:40:02;5.10;99.90
4187;DHT22;2107;52.306;10.484;2023-12-20T02:42:29;5.10;99.90
4187;DHT22;2107;52.306;10.484;2023-12-20T02:44:56;4.90;99.90
4187;DHT22;2107;52.306;10.484;2023-12-20T02:47:23;4.90;99.90
4187;DHT22;2107;52.306;10.484;2023-12-20T02:49:50;4.80;99.90
4187;DHT22;2107;52.306;10.484;2023-12-20T02:52:18;4.70;99.90
4187;DHT22;2107;52.306;10.484;2023-12-20T02:54:45;4.70;99.90
4187;DHT22;2107;52.306;10.484;2023-12-20T02:57:13;4.70;99.90
4187;DHT22;2107;52.306;10.484;2023-12-20T02:59:40;4.70;99.90
4187;DHT22;2107;52.306;10.484;2023-12-20T03:02:07;4.60;99.90
4187;DHT22;2107;52.306;10.484;2023-12-20T03:04:34;4.60;99.90
4187;DHT22;2107;52.306;10.484;2023-12-20T03:07:00;4.60;99.90
4187;DHT22;2107;52.306;10.484;2023-12-20T03:09:27;4.50;99.90
4187;DHT22;2107;52.306;10.484;2023-12-20T03:11:54;4.60;99.90
4187;DHT22;2107;52.306;10.484;2023-12-20T03:14:22;4.50;99.90
4187;DHT22;2107;52.306;10.484;2023-12-20T03:16:49;4.60;99.90
4187;DHT22;2107;52.306;10.484;2023-12-20T03:19:16;4.50;99.90
4187;DHT22;2107;52.306;10.484;2023-12-20T03:21:44;4.40;99.90
4187;DHT22;2107;52.306;10.484;2023-12-20T03:24:11;4.40;99.90
4187;DHT22;2107;52.306;10.484;2023-12-20T03:26:38;4.40;99.90
4187;DHT22;2107;52.306;10.484;2023-12-20T03:29:05;4.40;99.90
4187;DHT22;2107;52.306;10.484;2023-12-20T03:31:33;4.40;99.90
4187;DHT22;2107;52.306;10.484;2023-12-20T03:34:00;4.40;99.90
4187;DHT22;2107;52.306;10.484;2023-12-20T03:36:27;4.30;99.90
4187;DHT22;2107;52.306;10.484;2023-12-20T03:38:53;4.30;99.90
4187;DHT22;2107;52.306;10.484;2023-12-20T03:41:20;4.20;99.90
4187;DHT22;2107;52.306;10.484;2023-12-20T03:43:47;4.20;99.90
4187;DHT22;2107;52.306;10.484;2023-12-20T03:46:14;4.20;99.90
4187;DHT22;2107;52.306;10.484;2023-12-20T03:48:42;4.20;99.90
4187;DHT22;2107;52.306;10.484;2023-12-20T03:51:09;4.20;99.90
4187;DHT22;2107;52.306;10.484;2023-12-20T03:53:36;4.10;99.90
4187;DHT22;2107;52.306;10.484;2023-12-20T03:56:03;4.10;99.90
4187;DHT22;2107;52.306;10.484;2023-12-20T03:58:30;4.00;99.90
4187;DHT22;2107;52.306;10.484;2023-12-20T04:00:57;4.00;99.90
4187;DHT22;2107;52.306;10.484;2023-12-20T04:03:24;4.00;99.90
4187;DHT22;2107;52.306;10.484;2023-12-20T04:05:52;3.90;99.90
4187;DHT22;2107;52.306;10.484;2023-12-20T04:08:19;3.90;99.90
4187;DHT22;2107;52.306;10.484;2023-12-20T04:10:46;3.90;99.90
4187;DHT22;2107;52.306;10.484;2023-12-20T04:13:13;3.80;99.90
4187;DHT22;2107;52.306;10.484;2023-12-20T04:15:39;3.70;99.90
4187;DHT22;2107;52.306;10.484;2023-12-20T04:18:06;3.70;99.90
4187;DHT22;2107;52.306;10.484;2023-12-20T04:20:33;3.70;99.90
4187;DHT22;2107;52.306;10.484;2023-12-20T04:23:01;3.70;99.90
4187;DHT22;2107;52.306;10.484;2023-12-20T04:25:28;3.70;99.90
4187;DHT22;2107;52.306;10.484;2023-12-20T04:27:55;3.80;99.90
4187;DHT22;2107;52.306;10.484;2023-12-20T04:30:22;3.80;99.90
4187;DHT22;2107;52.306;10.484;2023-12-20T04:32:49;3.80;99.90
4187;DHT22;2107;52.306;10.484;2023-12-20T04:35:16;3.70;99.90
4187;DHT22;2107;52.306;10.484;2023-12-20T04:37:43;3.80;99.90
4187;DHT22;2107;52.306;10.484;2023-12-20T04:40:11;3.80;99.90
4187;DHT22;2107;52.306;10.484;2023-12-20T04:42:38;3.90;99.90
4187;DHT22;2107;52.306;10.484;2023-12-20T04:45:06;4.00;99.90
4187;DHT22;2107;52.306;10.484;2023-12-20T04:47:33;3.90;99.90
4187;DHT22;2107;52.306;10.484;2023-12-20T04:50:00;4.00;99.90
4187;DHT22;2107;52.306;10.484;2023-12-20T04:52:27;3.90;99.90
4187;DHT22;2107;52.306;10.484;2023-12-20T04:54:54;4.00;99.90
4187;DHT22;2107;52.306;10.484;2023-12-20T04:57:22;4.10;99.90
4187;DHT22;2107;52.306;10.484;2023-12-20T04:59:49;4.20;99.90
4187;DHT22;2107;52.306;10.484;2023-12-20T05:02:16;4.20;99.90
4187;DHT22;2107;52.306;10.484;2023-12-20T05:04:43;4.20;99.90
4187;DHT22;2107;52.306;10.484;2023-12-20T05:07:10;4.20;99.90
4187;DHT22;2107;52.306;10.484;2023-12-20T05:09:37;4.20;99.90
4187;DHT22;2107;52.306;10.484;2023-12-20T05:12:04;4.20;99.90
4187;DHT22;2107;52.306;10.484;2023-12-20T05:14:32;4.20;99.90
4187;DHT22;2107;52.306;10.484;2023-12-20T05:16:59;4.30;99.90
4187;DHT22;2107;52.306;10.484;2023-12-20T05:19:26;4.40;99.90
4187;DHT22;2107;52.306;10.484;2023-12-20T05:21:53;4.50;99.90
4187;DHT22;2107;52.306;10.484;2023-12-20T05:24:20;4.60;99.90
4187;DHT22;2107;52.306;10.484;2023-12-20T05:26:48;4.60;99.90
4187;DHT22;2107;52.306;10.484;2023-12-20T05:29:15;4.80;99.90
4187;DHT22;2107;52.306;10.484;2023-12-20T05:31:43;4.80;99.90
4187;DHT22;2107;52.306;10.484;2023-12-20T05:34:10;4.90;99.90
4187;DHT22;2107;52.306;10.484;2023-12-20T05:36:37;5.00;99.90
4187;DHT22;2107;52.306;10.484;2023-12-20T05:39:05;5.00;99.90
4187;DHT22;2107;52.306;10.484;2023-12-20T05:41:33;5.10;99.90
4187;DHT22;2107;52.306;10.484;2023-12-20T05:44:00;5.00;99.90
4187;DHT22;2107;52.306;10.484;2023-12-20T05:46:27;5.10;99.90
4187;DHT22;2107;52.306;10.484;2023-12-20T05:48:56;5.10;99.90
4187;DHT22;2107;52.306;10.484;2023-12-20T05:51:23;5.10;99.90
4187;DHT22;2107;52.306;10.484;2023-12-20T05:53:50;5.20;99.90
4187;DHT22;2107;52.306;10.484;2023-12-20T05:56:17;5.30;99.90
4187;DHT22;2107;52.306;10.484;2023-12-20T05:58:44;5.40;99.90
4187;DHT22;2107;52.306;10.484;2023-12-20T06:01:11;5.40;99.90
4187;DHT22;2107;52.306;10.484;2023-12-20T06:03:41;5.50;99.90
4187;DHT22;2107;52.306;10.484;2023-12-20T06:06:12;5.50;99.90
4187;DHT22;2107;52.306;10.484;2023-12-20T06:08:43;5.50;99.90
4187;DHT22;2107;52.306;10.484;2023-12-20T06:11:19;5.50;99.90
4187;DHT22;2107;52.306;10.484;2023-12-20T06:13:52;5.50;99.90
4187;DHT22;2107;52.306;10.484;2023-12-20T06:16:28;5.40;99.90
4187;DHT22;2107;52.306;10.484;2023-12-20T06:18:55;5.40;99.90
4187;DHT22;2107;52.306;10.484;2023-12-20T06:21:24;5.40;99.90
4187;DHT22;2107;52.306;10.484;2023-12-20T06:23:50;5.40;99.90
4187;DHT22;2107;52.306;10.484;2023-12-20T06:26:17;5.40;99.90
4187;DHT22;2107;52.306;10.484;2023-12-20T06:28:44;5.50;99.90
4187;DHT22;2107;52.306;10.484;2023-12-20T06:31:11;5.50;99.90
4187;DHT22;2107;52.306;10.484;2023-12-20T06:33:38;5.50;99.90
4187;DHT22;2107;52.306;10.484;2023-12-20T06:36:06;5.50;99.90
4187;DHT22;2107;52.306;10.484;2023-12-20T06:38:35;5.60;99.90
4187;DHT22;2107;52.306;10.484;2023-12-20T06:41:01;5.60;99.90
4187;DHT22;2107;52.306;10.484;2023-12-20T06:43:28;5.50;99.90
4187;DHT22;2107;52.306;10.484;2023-12-20T06:45:56;5.50;99.90
4187;DHT22;2107;52.306;10.484;2023-12-20T06:48:23;5.50;99.90
4187;DHT22;2107;52.306;10.484;2023-12-20T06:50:50;5.50;99.90
4187;DHT22;2107;52.306;10.484;2023-12-20T06:53:17;5.50;99.90
4187;DHT22;2107;52.306;10.484;2023-12-20T06:55:45;5.50;99.90
4187;DHT22;2107;52.306;10.484;2023-12-20T06:58:12;5.50;99.90
4187;DHT22;2107;52.306;10.484;2023-12-20T07:00:39;5.60;99.90
4187;DHT22;2107;52.306;10.484;2023-12-20T07:03:06;5.60;99.90
4187;DHT22;2107;52.306;10.484;2023-12-20T07:05:33;5.60;99.90
4187;DHT22;2107;52.306;10.484;2023-12-20T07:08:00;5.80;99.90
4187;DHT22;2107;52.306;10.484;2023-12-20T07:10:27;5.70;99.90
4187;DHT22;2107;52.306;10.484;2023-12-20T07:12:55;5.70;99.90
4187;DHT22;2107;52.306;10.484;2023-12-20T07:15:22;5.80;99.90
4187;DHT22;2107;52.306;10.484;2023-12-20T07:17:49;5.80;99.90
4187;DHT22;2107;52.306;10.484;2023-12-20T07:20:16;5.80;99.90
4187;DHT22;2107;52.306;10.484;2023-12-20T07:22:43;5.80;99.90
4187;DHT22;2107;52.306;10.484;2023-12-20T07:25:10;5.80;99.90
4187;DHT22;2107;52.306;10.484;2023-12-20T07:27:37;5.80;99.90
4187;DHT22;2107;52.306;10.484;2023-12-20T07:30:06;5.80;99.90
4187;DHT22;2107;52.306;10.484;2023-12-20T07:32:33;5.70;99.90
4187;DHT22;2107;52.306;10.484;2023-12-20T07:35:01;5.70;99.90
4187;DHT22;2107;52.306;10.484;2023-12-20T07:37:28;5.60;99.90
4187;DHT22;2107;52.306;10.484;2023-12-20T07:39:55;5.70;99.90
4187;DHT22;2107;52.306;10.484;2023-12-20T07:42:22;5.60;99.90
4187;DHT22;2107;52.306;10.484;2023-12-20T07:44:49;5.70;99.90
4187;DHT22;2107;52.306;10.484;2023-12-20T07:47:17;5.60;99.90
4187;DHT22;2107;52.306;10.484;2023-12-20T07:49:47;5.50;99.90
4187;DHT22;2107;52.306;10.484;2023-12-20T07:52:14;5.40;99.90
4187;DHT22;2107;52.306;10.484;2023-12-20T07:54:41;5.50;99.90
4187;DHT22;2107;52.306;10.484;2023-12-20T07:57:08;5.50;99.90
4187;DHT22;2107;52.306;10.484;2023-12-20T07:59:36;5.40;99.90
4187;DHT22;2107;52.306;10.484;2023-12-20T08:02:03;5.30;99.90
4187;DHT22;2107;52.306;10.484;2023-12-20T08:04:31;5.30;99.90
4187;DHT22;2107;52.306;10.484;2023-12-20T08:06:58;5.30;99.90
4187;DHT22;2107;52.306;10.484;2023-12-20T08:09:26;5.30;99.90
4187;DHT22;2107;52.306;10.484;2023-12-20T08:11:52;5.40;99.90
4187;DHT22;2107;52.306;10.484;2023-12-20T08:14:19;5.70;99.90
4187;DHT22;2107;52.306;10.484;2023-12-20T08:16:46;5.80;99.90
4187;DHT22;2107;52.306;10.484;2023-12-20T08:19:13;6.00;99.90
4187;DHT22;2107;52.306;10.484;2023-12-20T08:21:41;6.10;99.90
4187;DHT22;2107;52.306;10.484;2023-12-20T08:24:08;6.10;99.90
4187;DHT22;2107;52.306;10.484;2023-12-20T08:26:35;6.10;99.90
4187;DHT22;2107;52.306;10.484;2023-12-20T08:29:02;6.10;99.90
4187;DHT22;2107;52.306;10.484;2023-12-20T08:31:29;6.00;99.90
4187;DHT22;2107;52.306;10.484;2023-12-20T08:33:56;5.90;99.90
4187;DHT22;2107;52.306;10.484;2023-12-20T08:36:22;5.80;99.90
4187;DHT22;2107;52.306;10.484;2023-12-20T08:38:51;5.70;99.90
4187;DHT22;2107;52.306;10.484;2023-12-20T08:41:18;5.60;99.90
4187;DHT22;2107;52.306;10.484;2023-12-20T08:43:46;5.60;99.90
4187;DHT22;2107;52.306;10.484;2023-12-20T08:46:14;5.60;99.90
4187;DHT22;2107;52.306;10.484;2023-12-20T08:48:41;5.60;99.90
4187;DHT22;2107;52.306;10.484;2023-12-20T08:51:07;5.50;99.90
4187;DHT22;2107;52.306;10.484;2023-12-20T08:53:34;5.60;99.90
4187;DHT22;2107;52.306;10.484;2023-12-20T08:56:03;5.60;99.90
4187;DHT22;2107;52.306;10.484;2023-12-20T08:58:30;5.50;99.90
4187;DHT22;2107;52.306;10.484;2023-12-20T09:00:59;5.50;99.90
4187;DHT22;2107;52.306;10.484;2023-12-20T09:03:26;5.60;99.90
4187;DHT22;2107;52.306;10.484;2023-12-20T09:05:53;5.60;99.90
4187;DHT22;2107;52.306;10.484;2023-12-20T09:08:20;5.60;99.90
4187;DHT22;2107;52.306;10.484;2023-12-20T09:10:47;5.70;99.90
4187;DHT22;2107;52.306;10.484;2023-12-20T09:13:15;5.70;99.90
4187;DHT22;2107;52.306;10.484;2023-12-20T09:15:42;5.80;99.90
4187;DHT22;2107;52.306;10.484;2023-12-20T09:18:09;5.80;99.90
4187;DHT22;2107;52.306;10.484;2023-12-20T09:20:36;5.90;99.90
4187;DHT22;2107;52.306;10.484;2023-12-20T09:23:03;6.00;99.90
4187;DHT22;2107;52.306;10.484;2023-12-20T09:25:30;6.10;99.90
4187;DHT22;2107;52.306;10.484;2023-12-20T09:27:57;6.20;99.90
4187;DHT22;2107;52.306;10.484;2023-12-20T09:30:25;6.30;99.90
4187;DHT22;2107;52.306;10.484;2023-12-20T09:32:52;6.30;99.90
4187;DHT22;2107;52.306;10.484;2023-12-20T09:35:19;6.30;99.90
4187;DHT22;2107;52.306;10.484;2023-12-20T09:37:46;6.30;99.90
4187;DHT22;2107;52.306;10.484;2023-12-20T09:40:13;6.30;99.90
4187;DHT22;2107;52.306;10.484;2023-12-20T09:42:48;6.40;99.90
4187;DHT22;2107;52.306;10.484;2023-12-20T09:45:20;6.50;99.90
4187;DHT22;2107;52.306;10.484;2023-12-20T09:47:50;6.60;99.90
4187;DHT22;2107;52.306;10.484;2023-12-20T09:50:18;6.60;99.90
4187;DHT22;2107;52.306;10.484;2023-12-20T09:52:47;6.60;99.90
4187;DHT22;2107;52.306;10.484;2023-12-20T09:55:17;6.50;99.90
4187;DHT22;2107;52.306;10.484;2023-12-20T09:57:44;6.50;99.90
4187;DHT22;2107;52.306;10.484;2023-12-20T10:00:12;6.50;99.90
4187;DHT22;2107;52.306;10.484;2023-12-20T10:02:45;6.40;99.90
4187;DHT22;2107;52.306;10.484;2023-12-20T10:05:17;6.40;99.90
4187;DHT22;2107;52.306;10.484;2023-12-20T10:07:45;6.40;99.90
4187;DHT22;2107;52.306;10.484;2023-12-20T10:10:13;6.40;99.90
4187;DHT22;2107;52.306;10.484;2023-12-20T10:12:40;6.50;99.90
4187;DHT22;2107;52.306;10.484;2023-12-20T10:15:07;6.50;99.90
4187;DHT22;2107;52.306;10.484;2023-12-20T10:17:36;6.50;99.90
4187;DHT22;2107;52.306;10.484;2023-12-20T10:20:04;6.60;99.90
4187;DHT22;2107;52.306;10.484;2023-12-20T10:22:37;6.70;99.90
4187;DHT22;2107;52.306;10.484;2023-12-20T10:25:05;6.70;99.90
4187;DHT22;2107;52.306;10.484;2023-12-20T10:27:32;6.70;99.90
4187;DHT22;2107;52.306;10.484;2023-12-20T10:29:59;6.90;99.90
4187;DHT22;2107;52.306;10.484;2023-12-20T10:32:27;6.80;99.90
4187;DHT22;2107;52.306;10.484;2023-12-20T10:34:54;6.90;99.90
4187;DHT22;2107;52.306;10.484;2023-12-20T10:37:21;6.90;99.90
4187;DHT22;2107;52.306;10.484;2023-12-20T10:39:51;6.80;99.90
4187;DHT22;2107;52.306;10.484;2023-12-20T10:42:22;6.80;99.90
4187;DHT22;2107;52.306;10.484;2023-12-20T10:44:49;6.80;99.90
4187;DHT22;2107;52.306;10.484;2023-12-20T10:47:17;6.80;99.90
4187;DHT22;2107;52.306;10.484;2023-12-20T10:49:45;6.60;99.90
4187;DHT22;2107;52.306;10.484;2023-12-20T10:52:12;6.60;99.90
4187;DHT22;2107;52.306;10.484;2023-12-20T10:54:40;6.60;99.90
4187;DHT22;2107;52.306;10.484;2023-12-20T10:57:08;6.60;99.90
4187;DHT22;2107;52.306;10.484;2023-12-20T10:59:37;6.90;99.90
4187;DHT22;2107;52.306;10.484;2023-12-20T11:02:04;6.90;99.90
4187;DHT22;2107;52.306;10.484;2023-12-20T11:04:39;7.00;99.90
4187;DHT22;2107;52.306;10.484;2023-12-20T11:07:19;7.00;99.90
4187;DHT22;2107;52.306;10.484;2023-12-20T11:09:53;7.00;99.90
4187;DHT22;2107;52.306;10.484;2023-12-20T11:12:35;6.90;99.90
4187;DHT22;2107;52.306;10.484;2023-12-20T11:15:05;7.00;99.90
4187;DHT22;2107;52.306;10.484;2023-12-20T11:17:33;6.90;99.90
4187;DHT22;2107;52.306;10.484;2023-12-20T11:20:08;6.70;99.90
4187;DHT22;2107;52.306;10.484;2023-12-20T11:22:37;6.50;99.90
4187;DHT22;2107;52.306;10.484;2023-12-20T11:25:08;6.70;99.90
4187;DHT22;2107;52.306;10.484;2023-12-20T11:27:40;6.50;99.90
4187;DHT22;2107;52.306;10.484;2023-12-20T11:30:08;6.50;99.90
4187;DHT22;2107;52.306;10.484;2023-12-20T11:32:36;6.50;99.90
4187;DHT22;2107;52.306;10.484;2023-12-20T11:35:17;6.50;99.90
4187;DHT22;2107;52.306;10.484;2023-12-20T11:37:45;6.60;99.90
4187;DHT22;2107;52.306;10.484;2023-12-20T11:40:15;6.60;99.90
4187;DHT22;2107;52.306;10.484;2023-12-20T11:42:50;6.70;99.90
4187;DHT22;2107;52.306;10.484;2023-12-20T11:45:19;6.60;99.90
4187;DHT22;2107;52.306;10.484;2023-12-20T11:47:48;6.60;99.90
4187;DHT22;2107;52.306;10.484;2023-12-20T11:50:16;6.50;99.90
4187;DHT22;2107;52.306;10.484;2023-12-20T11:52:43;6.40;99.90
4187;DHT22;2107;52.306;10.484;2023-12-20T11:55:10;6.40;99.90
4187;DHT22;2107;52.306;10.484;2023-12-20T11:57:38;6.30;99.90
4187;DHT22;2107;52.306;10.484;2023-12-20T12:00:07;6.30;99.90
4187;DHT22;2107;52.306;10.484;2023-12-20T12:02:34;6.20;99.90
4187;DHT22;2107;52.306;10.484;2023-12-20T12:05:01;6.20;99.90
4187;DHT22;2107;52.306;10.484;2023-12-20T12:07:27;6.20;99.90
4187;DHT22;2107;52.306;10.484;2023-12-20T12:09:54;6.20;99.90
4187;DHT22;2107;52.306;10.484;2023-12-20T12:12:21;6.10;99.90
4187;DHT22;2107;52.306;10.484;2023-12-20T12:14:49;6.10;99.90
4187;DHT22;2107;52.306;10.484;2023-12-20T12:17:17;6.10;99.90
4187;DHT22;2107;52.306;10.484;2023-12-20T12:19:44;6.10;99.90
4187;DHT22;2107;52.306;10.484;2023-12-20T12:22:13;6.00;99.90
4187;DHT22;2107;52.306;10.484;2023-12-20T12:24:43;6.00;99.90
4187;DHT22;2107;52.306;10.484;2023-12-20T12:27:11;6.00;99.90
4187;DHT22;2107;52.306;10.484;2023-12-20T12:29:38;5.90;99.90
4187;DHT22;2107;52.306;10.484;2023-12-20T12:32:06;5.80;99.90
4187;DHT22;2107;52.306;10.484;2023-12-20T12:34:34;5.80;99.90
4187;DHT22;2107;52.306;10.484;2023-12-20T12:37:03;5.90;99.90
4187;DHT22;2107;52.306;10.484;2023-12-20T12:39:30;5.90;99.90
4187;DHT22;2107;52.306;10.484;2023-12-20T12:41:57;5.80;99.90
4187;DHT22;2107;52.306;10.484;2023-12-20T12:44:24;5.90;99.90
4187;DHT22;2107;52.306;10.484;2023-12-20T12:46:51;5.80;99.90
4187;DHT22;2107;52.306;10.484;2023-12-20T12:49:19;5.80;99.90
4187;DHT22;2107;52.306;10.484;2023-12-20T12:51:48;5.80;99.90
4187;DHT22;2107;52.306;10.484;2023-12-20T12:54:15;5.70;99.90
4187;DHT22;2107;52.306;10.484;2023-12-20T12:56:43;5.70;99.90
4187;DHT22;2107;52.306;10.484;2023-12-20T12:59:12;5.70;99.90
4187;DHT22;2107;52.306;10.484;2023-12-20T13:01:39;5.70;99.90
4187;DHT22;2107;52.306;10.484;2023-12-20T13:04:06;5.60;99.90
4187;DHT22;2107;52.306;10.484;2023-12-20T13:06:36;5.60;99.90
4187;DHT22;2107;52.306;10.484;2023-12-20T13:09:05;5.60;99.90
4187;DHT22;2107;52.306;10.484;2023-12-20T13:11:32;5.50;99.90
4187;DHT22;2107;52.306;10.484;2023-12-20T13:13:59;5.50;99.90
4187;DHT22;2107;52.306;10.484;2023-12-20T13:16:26;5.40;99.90
4187;DHT22;2107;52.306;10.484;2023-12-20T13:18:53;5.30;99.90
4187;DHT22;2107;52.306;10.484;2023-12-20T13:21:20;5.20;99.90
4187;DHT22;2107;52.306;10.484;2023-12-20T13:23:47;5.20;99.90
4187;DHT22;2107;52.306;10.484;2023-12-20T13:26:15;5.20;99.90
4187;DHT22;2107;52.306;10.484;2023-12-20T13:28:43;5.20;99.90
4187;DHT22;2107;52.306;10.484;2023-12-20T13:31:10;5.30;99.90
4187;DHT22;2107;52.306;10.484;2023-12-20T13:33:36;5.30;99.90
4187;DHT22;2107;52.306;10.484;2023-12-20T13:36:04;5.20;99.90
4187;DHT22;2107;52.306;10.484;2023-12-20T13:38:32;5.10;99.90
4187;DHT22;2107;52.306;10.484;2023-12-20T13:40:58;4.90;99.90
4187;DHT22;2107;52.306;10.484;2023-12-20T13:43:27;4.90;99.90
4187;DHT22;2107;52.306;10.484;2023-12-20T13:45:54;4.90;99.90
4187;DHT22;2107;52.306;10.484;2023-12-20T13:48:21;5.00;99.90
4187;DHT22;2107;52.306;10.484;2023-12-20T13:50:48;5.10;99.90
4187;DHT22;2107;52.306;10.484;2023-12-20T13:53:15;5.00;99.90
4187;DHT22;2107;52.306;10.484;2023-12-20T13:55:42;5.10;99.90
4187;DHT22;2107;52.306;10.484;2023-12-20T13:58:09;5.10;99.90
4187;DHT22;2107;52.306;10.484;2023-12-20T14:00:38;5.10;99.90
4187;DHT22;2107;52.306;10.484;2023-12-20T14:03:05;5.10;99.90
4187;DHT22;2107;52.306;10.484;2023-12-20T14:05:32;5.10;99.90
4187;DHT22;2107;52.306;10.484;2023-12-20T14:07:59;5.10;99.90
4187;DHT22;2107;52.306;10.484;2023-12-20T14:10:26;5.20;99.90
4187;DHT22;2107;52.306;10.484;2023-12-20T14:12:53;5.10;99.90
4187;DHT22;2107;52.306;10.484;2023-12-20T14:15:20;5.10;99.90
4187;DHT22;2107;52.306;10.484;2023-12-20T14:17:48;5.20;99.90
4187;DHT22;2107;52.306;10.484;2023-12-20T14:20:15;5.30;99.90
4187;DHT22;2107;52.306;10.484;2023-12-20T14:22:43;5.30;99.90
4187;DHT22;2107;52.306;10.484;2023-12-20T14:25:11;5.30;99.90
4187;DHT22;2107;52.306;10.484;2023-12-20T14:27:38;5.30;99.90
4187;DHT22;2107;52.306;10.484;2023-12-20T14:30:08;5.30;99.90
4187;DHT22;2107;52.306;10.484;2023-12-20T14:32:36;5.20;99.90
4187;DHT22;2107;52.306;10.484;2023-12-20T14:35:06;5.20;99.90
4187;DHT22;2107;52.306;10.484;2023-12-20T14:37:33;5.20;99.90
4187;DHT22;2107;52.306;10.484;2023-12-20T14:40:00;5.30;99.90
4187;DHT22;2107;52.306;10.484;2023-12-20T14:42:28;5.40;99.90
4187;DHT22;2107;52.306;10.484;2023-12-20T14:44:55;5.50;99.90
4187;DHT22;2107;52.306;10.484;2023-12-20T14:47:22;5.30;99.90
4187;DHT22;2107;52.306;10.484;2023-12-20T14:49:50;5.30;99.90
4187;DHT22;2107;52.306;10.484;2023-12-20T14:52:19;5.40;99.90
4187;DHT22;2107;52.306;10.484;2023-12-20T14:54:46;5.40;99.90
4187;DHT22;2107;52.306;10.484;2023-12-20T14:57:13;5.40;99.90
4187;DHT22;2107;52.306;10.484;2023-12-20T14:59:40;5.50;99.90
4187;DHT22;2107;52.306;10.484;2023-12-20T15:02:09;5.50;99.90
4187;DHT22;2107;52.306;10.484;2023-12-20T15:04:36;5.40;99.90
4187;DHT22;2107;52.306;10.484;2023-12-20T15:07:03;5.50;99.90
4187;DHT22;2107;52.306;10.484;2023-12-20T15:09:33;5.50;99.90
4187;DHT22;2107;52.306;10.484;2023-12-20T15:12:00;5.50;99.90
4187;DHT22;2107;52.306;10.484;2023-12-20T15:14:27;5.60;99.90
4187;DHT22;2107;52.306;10.484;2023-12-20T15:16:54;5.50;99.90
4187;DHT22;2107;52.306;10.484;2023-12-20T15:19:22;5.50;99.90
4187;DHT22;2107;52.306;10.484;2023-12-20T15:21:52;5.60;99.90
4187;DHT22;2107;52.306;10.484;2023-12-20T15:24:19;5.60;99.90
4187;DHT22;2107;52.306;10.484;2023-12-20T15:26:55;5.60;99.90
4187;DHT22;2107;52.306;10.484;2023-12-20T15:29:22;5.60;99.90
4187;DHT22;2107;52.306;10.484;2023-12-20T15:31:49;5.70;99.90
4187;DHT22;2107;52.306;10.484;2023-12-20T15:34:18;5.70;99.90
4187;DHT22;2107;52.306;10.484;2023-12-20T15:36:45;5.70;99.90
4187;DHT22;2107;52.306;10.484;2023-12-20T15:39:12;5.80;99.90
4187;DHT22;2107;52.306;10.484;2023-12-20T15:41:42;5.70;99.90
4187;DHT22;2107;52.306;10.484;2023-12-20T15:44:10;5.60;99.90
4187;DHT22;2107;52.306;10.484;2023-12-20T15:46:38;5.50;99.90
4187;DHT22;2107;52.306;10.484;2023-12-20T15:49:05;5.50;99.90
4187;DHT22;2107;52.306;10.484;2023-12-20T15:51:31;5.40;99.90
4187;DHT22;2107;52.306;10.484;2023-12-20T15:53:57;5.40;99.90
4187;DHT22;2107;52.306;10.484;2023-12-20T15:56:28;5.30;99.90
4187;DHT22;2107;52.306;10.484;2023-12-20T15:58:56;5.30;99.90
4187;DHT22;2107;52.306;10.484;2023-12-20T16:01:25;5.20;99.90
4187;DHT22;2107;52.306;10.484;2023-12-20T16:03:52;5.20;99.90